This is the latest recevied weather packets stored in our database for station/object I3RKE-10. If no packets are shown the sender has not sent any weather packets the latest 10 day(s).
| Time | Temp. | Humidity | Pressure | Rain* | Wind** | Luminosity | Snow |
|---|---|---|---|---|---|---|---|
| 1778226147 | 18.89° C | 61% | 1010.6 hPa | - | - | - | - |
| 1778225247 | 18.33° C | 62% | 1010.7 hPa | - | - | - | - |
| 1778224347 | 18.33° C | 59% | 1010.6 hPa | - | - | - | - |
| 1778223447 | 17.78° C | 61% | 1010.6 hPa | - | - | - | - |
| 1778222547 | 17.78° C | 63% | 1010.5 hPa | - | - | - | - |
| 1778221647 | 17.78° C | 62% | 1010.3 hPa | - | - | - | - |
| 1778220747 | 17.22° C | 62% | 1010.1 hPa | - | - | - | - |
| 1778219847 | 16.67° C | 63% | 1010 hPa | - | - | - | - |
| 1778218947 | 16.11° C | 67% | 1009.9 hPa | - | - | - | - |
| 1778218047 | 15.56° C | 70% | 1009.8 hPa | - | - | - | - |
| 1778217146 | 15° C | 73% | 1009.7 hPa | - | - | - | - |
| 1778216246 | 13.89° C | 78% | 1009.7 hPa | - | - | - | - |
| 1778215346 | 13.89° C | 78% | 1009.5 hPa | - | - | - | - |
| 1778214446 | 13.33° C | 79% | 1009.3 hPa | - | - | - | - |
| 1778213546 | 13.33° C | 81% | 1009.3 hPa | - | - | - | - |
| 1778212646 | 13.33° C | 81% | 1009.3 hPa | - | - | - | - |
| 1778211746 | 13.33° C | 81% | 1009.4 hPa | - | - | - | - |
| 1778210846 | 13.89° C | 78% | 1009.5 hPa | - | - | - | - |
| 1778209946 | 14.44° C | 74% | 1009.6 hPa | - | - | - | - |
| 1778209046 | 14.44° C | 75% | 1009.6 hPa | - | - | - | - |
| 1778208146 | 14.44° C | 76% | 1009.7 hPa | - | - | - | - |
| 1778207245 | 14.44° C | 75% | 1009.8 hPa | - | - | - | - |
| 1778206345 | 13.89° C | 76% | 1009.7 hPa | - | - | - | - |
| 1778205445 | 13.89° C | 77% | 1009.8 hPa | - | - | - | - |
| 1778204545 | 13.89° C | 76% | 1009.8 hPa | - | - | - | - |
* Rain since midnight (hover to see other rain measurements)
** Current wind speed in m/s (hover to see current wind gust speed)